Time;durP1;ratioP1;P1;durP2;ratioP2;P2;SDS_P1;SDS_P2;PMS_P1;PMS_P2;Temp;Humidity;BMP_temperature;BMP_pressure;BME280_temperature;BME280_humidity;BME280_pressure;Samples;Min_cycle;Max_cycle;Signal;HPM_P1;HPM_P2
2021/03/16 01:25:08;;;;;;;64.77;30.37;;;;;;;5.41;71.34;99309.03;1780694;79;21198;-86
2021/03/16 01:27:37;;;;;;;43.20;26.40;;;;;;;5.41;71.35;99305.06;1689542;83;21180;-85
2021/03/16 01:30:17;;;;;;;34.70;23.93;;;;;;;5.54;70.96;99309.23;1818623;77;24767;-86
2021/03/16 01:32:47;;;;;;;29.77;21.47;;;;;;;4.48;70.85;99156.03;1801522;78;21094;-87
2021/03/16 01:35:15;;;;;;;38.30;24.20;;;;;;;5.44;70.87;99309.49;1761333;79;21170;-87
2021/03/16 01:37:43;;;;;;;45.97;27.97;;;;;;;5.38;70.84;99300.94;1743524;80;21171;-87
2021/03/16 01:40:15;;;;;;;38.23;24.57;;;;;;;5.33;70.94;99303.33;1742355;81;21219;-87
2021/03/16 01:42:44;;;;;;;25.90;19.27;;;;;;;5.27;70.98;99297.41;1698541;82;21206;-86
2021/03/16 01:45:16;;;;;;;24.23;20.57;;;;;;;5.28;70.90;99301.71;1712284;81;21104;-85
2021/03/16 01:47:50;;;;;;;25.97;20.77;;;;;;;5.29;70.89;99295.92;1705404;82;21332;-87
2021/03/16 01:50:20;;;;;;;24.30;19.70;;;;;;;5.22;70.94;99305.08;1716854;82;21207;-89
2021/03/16 01:52:51;;;;;;;23.43;20.50;;;;;;;5.12;71.21;99307.95;1726246;82;21190;-86
2021/03/16 01:55:21;;;;;;;32.47;23.73;;;;;;;4.99;71.66;99313.00;1708431;82;21206;-88
2021/03/16 01:57:56;;;;;;;44.90;26.27;;;;;;;4.90;71.90;99308.31;1681815;84;21227;-87
2021/03/16 02:00:44;;;;;;;83.23;31.23;;;;;;;4.98;71.94;99306.09;1670875;84;21289;-87
2021/03/16 02:03:34;;;;;;;91.27;36.63;;;;;;;5.03;71.72;99309.85;1657650;85;21859;-88
2021/03/16 02:06:37;;;;;;;106.43;36.17;;;;;;;4.91;71.84;99308.61;1674450;85;21132;-86
2021/03/16 02:09:41;;;;;;;82.37;33.93;;;;;;;4.85;72.19;99314.61;1683056;85;21183;-87
2021/03/16 02:12:40;;;;;;;72.63;31.40;;;;;;;4.80;72.28;99314.30;1717200;81;21707;-87
2021/03/16 02:15:37;;;;;;;44.38;24.98;;;;;;;4.88;71.84;99311.62;1727770;81;21167;-87
2021/03/16 02:18:33;;;;;;;49.60;25.37;;;;;;;4.91;71.46;99309.12;1727853;81;21155;-87
2021/03/16 02:21:28;;;;;;;46.10;25.40;;;;;;;4.79;71.73;99310.85;1757543;81;21143;-88
2021/03/16 02:24:20;;;;;;;;;;;;;;;4.69;71.90;99315.55;1732767;81;21549;-88
2021/03/16 02:27:13;;;;;;;60.40;25.20;;;;;;;4.61;71.98;99315.59;1725237;83;20190;-87
2021/03/16 02:30:04;;;;;;;38.03;23.83;;;;;;;4.49;71.93;99313.34;1703684;83;21166;-87
2021/03/16 02:32:53;;;;;;;34.27;21.57;;;;;;;4.61;71.68;99315.08;1699546;84;21155;-87
2021/03/16 02:35:42;;;;;;;34.37;21.50;;;;;;;4.61;71.31;99311.62;1706123;84;21129;-87
2021/03/16 02:38:32;;;;;;;33.77;22.60;;;;;;;4.50;71.54;99314.16;1693976;84;21152;-86
2021/03/16 02:41:21;;;;;;;29.67;21.73;;;;;;;4.43;71.75;99319.84;1696266;84;21177;-87
2021/03/16 02:44:07;;;;;;;36.63;20.77;;;;;;;4.40;71.74;99315.70;1704679;84;21168;-87
2021/03/16 02:46:53;;;;;;;29.23;20.67;;;;;;;4.39;71.75;99312.76;1696277;84;21236;-92
2021/03/16 02:49:44;;;;;;;29.33;20.43;;;;;;;4.48;71.47;99318.80;1682668;84;21164;-91
2021/03/16 02:52:34;;;;;;;27.27;20.33;;;;;;;4.45;71.36;99313.88;1700887;83;21168;-92
2021/03/16 02:55:25;;;;;;;26.57;22.00;;;;;;;4.38;71.53;99315.06;1655807;85;21683;-91
2021/03/16 02:58:13;;;;;;;29.27;21.67;;;;;;;4.35;71.69;99308.83;1653630;86;21173;-93
2021/03/16 03:01:03;;;;;;;29.43;22.63;;;;;;;4.33;71.68;99305.52;1648691;86;21744;-88
2021/03/16 03:03:52;;;;;;;24.77;20.25;;;;;;;4.29;71.83;99303.75;1676372;85;21457;-89
2021/03/16 03:06:42;;;;;;;24.47;20.43;;;;;;;4.36;71.70;99299.91;1674779;85;21541;-87
2021/03/16 03:09:36;;;;;;;25.23;21.53;;;;;;;4.47;71.58;99303.47;1687024;85;21212;-88
2021/03/16 03:12:29;;;;;;;26.70;20.37;;;;;;;4.41;71.68;99305.48;1689815;84;21316;-87
2021/03/16 03:15:15;;;;;;;23.57;20.70;;;;;;;4.36;71.96;99302.55;1662780;84;21217;-87
2021/03/16 03:18:10;;;;;;;26.77;21.77;;;;;;;4.32;72.07;99299.93;1680537;84;21214;-88
2021/03/16 03:21:03;;;;;;;25.70;20.67;;;;;;;4.28;72.06;99294.68;1681455;83;21325;-88
2021/03/16 03:24:04;;;;;;;21.67;18.53;;;;;;;4.30;72.00;99300.60;1670377;84;21069;-88
2021/03/16 03:27:10;;;;;;;21.33;19.03;;;;;;;4.41;71.59;99298.89;1683002;85;21289;-89
2021/03/16 04:06:56;;;;;;;27.67;20.33;;;;;;;3.44;71.77;99308.81;1792794;77;21207;-90
2021/03/16 04:59:07;;;;;;;29.40;20.87;;;;;;;3.70;70.69;99313.36;1779007;78;21318;-89
2021/03/16 06:27:47;;;;;;;26.17;19.27;;;;;;;4.14;69.18;99338.41;1717928;79;21175;-83
2021/03/16 06:30:49;;;;;;;28.17;20.47;;;;;;;4.42;68.86;99341.42;1817941;76;22942;-82
2021/03/16 06:33:36;;;;;;;25.20;19.20;;;;;;;4.43;68.58;99352.81;1786425;77;21054;-82
2021/03/16 06:36:26;;;;;;;33.67;21.83;;;;;;;4.44;68.08;99362.36;1725066;81;21205;-84
2021/03/16 06:39:20;;;;;;;29.87;21.13;;;;;;;4.32;68.51;99358.48;1719123;81;22467;-84
2021/03/16 06:42:06;;;;;;;33.93;22.40;;;;;;;4.22;68.99;99356.02;1723955;81;21843;-83
2021/03/16 06:45:03;;;;;;;34.13;21.37;;;;;;;4.28;69.42;99352.21;1704105;80;21101;-84
2021/03/16 06:47:50;;;;;;;149.00;43.57;;;;;;;4.51;68.47;99365.96;1731482;80;21200;-83
2021/03/16 06:51:00;;;;;;;76.27;28.70;;;;;;;4.67;67.81;99375.59;1724642;81;22404;-85
2021/03/16 06:53:47;;;;;;;69.93;30.63;;;;;;;4.59;68.31;99378.29;1743356;80;21160;-85
2021/03/16 06:56:36;;;;;;;78.80;29.80;;;;;;;4.62;68.81;99363.44;1741883;80;21096;-84
2021/03/16 06:59:29;;;;;;;69.97;29.83;;;;;;;4.82;68.92;99364.64;1750149;81;21190;-85
2021/03/16 07:04:57;;;;;;;73.83;30.43;;;;;;;5.17;66.92;99355.80;1882893;74;23047;-85
2021/03/16 07:07:46;;;;;;;57.57;26.53;;;;;;;5.22;66.44;99367.16;1843986;76;21356;-84
2021/03/16 07:10:40;;;;;;;72.00;29.17;;;;;;;5.25;66.88;99358.39;1836739;76;21137;-84
2021/03/16 07:13:26;;;;;;;157.10;49.07;;;;;;;5.29;66.22;99385.25;1797245;78;21269;-85
2021/03/16 07:16:16;;;;;;;109.50;38.00;;;;;;;4.32;65.71;99197.05;1798362;78;21183;-85
2021/03/16 07:19:07;;;;;;;72.73;29.37;;;;;;;5.38;66.03;99356.95;1796548;78;21202;-85
2021/03/16 07:21:55;;;;;;;56.60;22.67;;;;;;;5.52;65.58;99363.25;1800214;78;21301;-86
2021/03/16 07:24:42;;;;;;;35.10;18.87;;;;;;;5.76;65.40;99353.76;1795378;78;21159;-83
2021/03/16 07:27:33;;;;;;;29.87;17.97;;;;;;;5.86;64.07;99357.48;1793363;78;21187;-84
2021/03/16 07:30:19;;;;;;;31.68;18.82;;;;;;;5.62;64.41;99360.69;1791568;78;21614;-85
2021/03/16 07:33:06;;;;;;;39.57;22.70;;;;;;;5.48;64.76;99357.50;1795677;78;21409;-84
2021/03/16 07:35:52;;;;;;;55.93;25.63;;;;;;;5.54;65.44;99338.78;1796066;78;21193;-86
2021/03/16 07:38:40;;;;;;;41.73;22.02;;;;;;;5.53;65.24;99331.87;1794475;78;21330;-85
2021/03/16 07:41:29;;;;;;;26.48;19.15;;;;;;;5.65;65.58;99329.09;1757978;80;21221;-86
2021/03/16 07:44:17;;;;;;;26.03;18.23;;;;;;;5.83;64.67;99315.52;1737329;81;21203;-84
2021/03/16 07:47:04;;;;;;;23.70;17.73;;;;;;;6.07;64.93;99322.39;1732593;81;21179;-85
2021/03/16 07:49:55;;;;;;;25.90;18.60;;;;;;;6.30;63.64;99322.27;1725591;81;21277;-86
2021/03/16 07:52:45;;;;;;;26.73;18.80;;;;;;;6.32;64.21;99324.22;1717512;81;21373;-84
2021/03/16 07:55:33;;;;;;;27.07;17.87;;;;;;;6.30;63.61;99330.71;1757801;80;21736;-85
2021/03/16 07:58:26;;;;;;;26.13;17.40;;;;;;;5.79;63.58;99261.36;1731198;81;21711;-86
2021/03/16 08:01:16;;;;;;;21.13;15.70;;;;;;;6.34;63.31;99321.39;1735042;81;21333;-86
2021/03/16 08:04:10;;;;;;;17.20;13.90;;;;;;;6.37;63.48;99327.14;1724523;81;21170;-86
2021/03/16 08:07:07;;;;;;;21.77;16.73;;;;;;;6.29;63.48;99296.81;1734731;80;21313;-90
2021/03/16 08:09:57;;;;;;;21.80;16.77;;;;;;;6.30;63.73;99326.23;1733378;81;21219;-86
2021/03/16 08:12:43;;;;;;;22.57;15.23;;;;;;;6.23;63.89;99318.23;1744166;80;21068;-87
2021/03/16 08:16:00;;;;;;;;;;;;;;;;;;;;;
2021/03/16 08:18:39;;;;;;;21.20;15.13;;;;;;;6.37;63.35;99279.48;1707184;81;21135;-85
2021/03/16 08:21:31;;;;;;;25.60;17.13;;;;;;;6.58;63.45;99326.34;1702613;82;21302;-90
2021/03/16 08:24:17;;;;;;;21.30;16.40;;;;;;;6.65;63.65;99318.97;1724841;81;21116;-88
2021/03/16 08:27:08;;;;;;;22.07;15.87;;;;;;;6.81;62.83;99324.03;1744979;81;21354;-86
2021/03/16 08:29:54;;;;;;;23.17;17.27;;;;;;;6.89;62.81;99320.44;1735856;81;21198;-87
2021/03/16 08:32:40;;;;;;;35.30;21.10;;;;;;;6.97;62.77;99319.01;1757940;80;21180;-86
2021/03/16 08:35:28;;;;;;;27.63;18.27;;;;;;;6.91;62.83;99299.87;1730438;81;21112;-89
2021/03/16 08:38:32;;;;;;;21.17;15.27;;;;;;;7.09;62.85;99320.13;1742068;81;21378;-86
2021/03/16 08:41:20;;;;;;;24.57;18.13;;;;;;;7.19;62.46;99319.28;1730657;81;21188;-87
2021/03/16 08:44:08;;;;;;;24.57;19.23;;;;;;;7.32;62.20;99323.88;1713888;81;21210;-86
2021/03/16 08:46:56;;;;;;;32.03;18.27;;;;;;;7.43;61.92;99306.63;1738943;79;21326;-86
2021/03/16 08:49:46;;;;;;;25.53;18.53;;;;;;;7.47;61.40;99313.69;1755340;79;21184;-87
2021/03/16 08:52:33;;;;;;;33.57;19.57;;;;;;;7.34;61.58;99309.11;1757979;79;21943;-86
2021/03/16 08:55:26;;;;;;;23.50;18.10;;;;;;;6.59;62.12;99210.66;1763534;79;21205;-85
2021/03/16 08:58:15;;;;;;;26.57;16.80;;;;;;;7.28;62.07;99308.05;1757619;79;21422;-86
2021/03/16 09:01:04;;;;;;;25.83;17.57;;;;;;;7.40;62.01;99308.33;1721308;81;21120;-87
2021/03/16 09:03:55;;;;;;;22.43;16.30;;;;;;;7.57;61.74;99309.70;1696908;82;21174;-87
2021/03/16 09:06:42;;;;;;;31.68;16.35;;;;;;;7.93;61.41;99302.05;1719995;82;21411;-88
2021/03/16 09:09:33;;;;;;;23.15;16.62;;;;;;;8.17;60.31;99306.05;1712485;82;21396;-88
2021/03/16 09:12:30;;;;;;;23.63;16.70;;;;;;;8.28;59.48;99298.00;1710548;82;21123;-89
2021/03/16 09:15:26;;;;;;;21.20;15.97;;;;;;;7.59;59.30;99213.52;1693680;83;21190;-87
2021/03/16 09:18:13;;;;;;;20.80;16.03;;;;;;;8.08;59.59;99313.02;1707295;82;21337;-88
2021/03/16 09:21:13;;;;;;;17.35;15.50;;;;;;;7.97;59.93;99317.07;1708979;82;21380;-88
2021/03/16 09:24:04;;;;;;;20.03;16.07;;;;;;;8.00;60.31;99316.66;1711550;83;21229;-88
2021/03/16 09:26:57;;;;;;;19.03;15.03;;;;;;;8.14;60.11;99318.89;1731702;81;21123;-89
2021/03/16 09:29:43;;;;;;;20.40;15.80;;;;;;;8.25;59.81;99315.67;1707265;83;21702;-88
2021/03/16 09:32:32;;;;;;;27.23;16.73;;;;;;;8.33;59.54;99310.17;1707951;82;21178;-84
2021/03/16 09:35:20;;;;;;;24.50;17.53;;;;;;;8.41;59.29;99315.81;1699318;82;21172;-87
2021/03/16 09:38:07;;;;;;;20.65;18.17;;;;;;;8.38;59.55;99305.09;1696165;82;21195;-91
2021/03/16 09:40:55;;;;;;;20.67;16.20;;;;;;;8.37;59.42;99302.11;1826767;77;23497;-88
2021/03/16 09:43:36;;;;;;;19.07;14.37;;;;;;;8.33;59.33;99307.52;1803311;78;21195;-87
2021/03/16 09:46:10;;;;;;;24.23;15.50;;;;;;;8.28;58.99;99309.94;1780951;76;21627;-87
2021/03/16 09:48:55;;;;;;;17.70;14.93;;;;;;;8.29;59.23;99312.92;1759785;79;23078;-88
2021/03/16 09:51:28;;;;;;;18.12;14.20;;;;;;;8.24;59.54;99310.55;1718190;82;21206;-88
2021/03/16 09:54:00;;;;;;;15.70;13.63;;;;;;;8.25;59.83;99298.90;1720738;82;21201;-89
2021/03/16 09:56:33;;;;;;;21.80;16.50;;;;;;;8.25;60.18;99326.29;1710703;81;21662;-89
2021/03/16 09:59:04;;;;;;;19.73;15.07;;;;;;;8.23;59.80;99320.84;1705105;83;21375;-89
2021/03/16 10:01:40;;;;;;;25.83;15.83;;;;;;;8.14;59.84;99321.55;1709768;82;21127;-89
2021/03/16 10:04:13;;;;;;;23.00;16.10;;;;;;;8.02;60.14;99341.67;1740774;81;21154;-88
2021/03/16 10:06:44;;;;;;;17.27;14.07;;;;;;;7.86;60.67;99343.64;1723991;82;21188;-89
2021/03/16 10:09:36;;;;;;;16.40;14.13;;;;;;;7.76;61.03;99348.45;1800314;77;23102;-88
2021/03/16 10:12:09;;;;;;;21.03;15.30;;;;;;;7.62;61.52;99350.20;1784729;78;21127;-90
2021/03/16 10:14:37;;;;;;;23.50;16.30;;;;;;;7.68;61.85;99347.29;1755282;80;21187;-90
2021/03/16 10:17:06;;;;;;;17.67;13.87;;;;;;;7.27;62.05;99288.34;1755989;81;21403;-90
2021/03/16 10:19:37;;;;;;;16.10;14.40;;;;;;;7.54;62.39;99366.27;1754781;81;21853;-90
2021/03/16 10:22:11;;;;;;;19.47;14.87;;;;;;;7.37;62.68;99351.15;1756609;80;21170;-87
2021/03/16 10:24:42;;;;;;;21.68;15.63;;;;;;;7.19;63.13;99359.55;1717295;82;21728;-91
2021/03/16 10:27:11;;;;;;;19.90;15.80;;;;;;;7.07;63.32;99351.80;1708041;82;21406;-91
2021/03/16 10:29:39;;;;;;;25.27;16.97;;;;;;;7.05;63.53;99348.02;1701109;82;22433;-89
2021/03/16 10:32:37;;;;;;;19.93;16.03;;;;;;;7.13;63.49;99341.25;1811479;77;23102;-89
2021/03/16 10:35:05;;;;;;;27.60;15.93;;;;;;;7.13;63.03;99341.77;1708035;80;21123;-89
2021/03/16 10:37:45;;;;;;;21.03;15.10;;;;;;;7.13;62.98;99345.23;1715448;82;21495;-88
2021/03/16 10:40:13;;;;;;;17.00;14.27;;;;;;;7.28;62.71;99343.02;1739235;80;21171;-90
2021/03/16 10:43:09;;;;;;;21.10;14.10;;;;;;;7.50;62.05;99341.97;1795313;77;23643;-90
2021/03/16 10:45:37;;;;;;;17.33;15.00;;;;;;;7.52;61.77;99342.59;1652242;83;21160;-89
2021/03/16 10:48:05;;;;;;;19.63;14.00;;;;;;;7.46;62.18;99338.55;1676754;83;21265;-88
2021/03/16 10:50:34;;;;;;;22.37;15.40;;;;;;;7.40;62.17;99331.70;1688477;82;21242;-88
2021/03/16 10:56:04;;;;;;;22.53;14.27;;;;;;;7.50;62.68;99324.73;1789792;77;23218;-90
2021/03/16 10:58:40;;;;;;;16.90;14.60;;;;;;;7.54;62.57;99321.19;1722250;80;22530;-90
2021/03/16 11:01:12;;;;;;;23.73;16.40;;;;;;;7.66;62.67;99323.61;1710590;81;21180;-88
2021/03/16 11:03:39;;;;;;;17.70;13.47;;;;;;;7.77;62.60;99317.76;1701840;80;21840;-89
2021/03/16 11:06:08;;;;;;;18.67;13.83;;;;;;;7.91;62.50;99304.56;1744925;80;21313;-89
2021/03/16 11:08:41;;;;;;;20.57;14.47;;;;;;;8.14;62.31;99313.58;1736848;80;21341;-91
2021/03/16 11:11:09;;;;;;;17.33;14.47;;;;;;;8.20;61.81;99315.44;1722750;80;21768;-90
2021/03/16 11:13:43;;;;;;;16.30;14.13;;;;;;;8.20;61.98;99327.38;1693534;84;21664;-90
2021/03/16 11:16:48;;;;;;;21.63;16.70;;;;;;;8.21;62.03;99317.05;1790048;78;23436;-89
2021/03/16 11:19:21;;;;;;;20.03;16.83;;;;;;;8.16;62.04;99298.27;1769341;80;21684;-89
2021/03/16 11:21:53;;;;;;;19.43;16.70;;;;;;;8.17;62.09;99295.91;1779589;79;21193;-90
2021/03/16 11:24:21;;;;;;;20.57;16.67;;;;;;;8.19;62.05;99294.72;1739923;79;21128;-88
2021/03/16 11:26:52;;;;;;;18.57;16.03;;;;;;;8.18;62.08;99283.77;1750736;79;21253;-87
2021/03/16 11:29:19;;;;;;;21.93;17.00;;;;;;;8.19;61.84;99300.02;1757295;80;21163;-89
2021/03/16 11:31:48;;;;;;;24.57;16.37;;;;;;;8.21;61.92;99290.51;1777679;79;21235;-89
2021/03/16 11:34:34;;;;;;;;;;;;;;;8.22;61.75;99286.05;1758662;79;21709;-89
2021/03/16 11:37:20;;;;;;;23.27;13.87;;;;;;;8.18;62.15;99281.12;1762749;80;20208;-89
2021/03/16 11:40:07;;;;;;;17.43;15.37;;;;;;;8.26;62.07;99272.16;1748623;80;21218;-85
2021/03/16 11:43:16;;;;;;;25.37;16.00;;;;;;;7.72;62.00;99213.25;1698970;81;21368;-92
2021/03/16 12:01:50;;;;;;;20.33;14.97;;;;;;;8.26;61.23;99290.74;1695616;78;21230;-90
2021/03/16 12:04:41;;;;;;;16.17;14.47;;;;;;;7.17;61.37;99122.53;1565887;88;21301;-91
2021/03/16 12:07:43;;;;;;;23.97;15.77;;;;;;;8.20;61.65;99274.29;1817352;77;22915;-91
2021/03/16 12:10:33;;;;;;;19.90;14.13;;;;;;;8.14;61.81;99279.07;1709037;81;21249;-89
2021/03/16 12:13:20;;;;;;;16.73;13.80;;;;;;;8.25;61.74;99278.50;1717994;81;21520;-91
2021/03/16 12:16:10;;;;;;;18.12;15.03;;;;;;;8.37;61.56;99287.52;1704152;81;21572;-89
2021/03/16 12:21:47;;;;;;;21.57;15.73;;;;;;;8.43;61.64;99277.15;1803066;77;23382;-90
2021/03/16 12:24:34;;;;;;;19.40;14.83;;;;;;;8.39;61.26;99288.12;1805873;78;21282;-92
2021/03/16 12:27:22;;;;;;;17.47;14.73;;;;;;;8.35;61.12;99288.73;1771467;79;21183;-90
2021/03/16 12:30:11;;;;;;;23.03;16.70;;;;;;;8.28;61.58;99288.70;1777168;79;21169;-91
2021/03/16 12:32:57;;;;;;;20.32;16.20;;;;;;;8.24;61.61;99303.40;1773828;79;21200;-89
2021/03/16 12:39:18;;;;;;;20.25;15.32;;;;;;;8.13;62.12;99266.80;1789353;77;22309;-88
2021/03/16 12:42:13;;;;;;;;;;;;;;;;;;;;;
2021/03/16 12:44:58;;;;;;;27.50;15.60;;;;;;;8.21;62.04;99288.38;1761646;76;22844;-91
2021/03/16 12:47:47;;;;;;;22.03;15.37;;;;;;;8.12;62.31;99268.65;1675896;83;21276;-91
2021/03/16 12:50:33;;;;;;;23.57;17.27;;;;;;;8.12;62.21;99270.49;1631817;86;21237;-90
2021/03/16 12:53:19;;;;;;;22.17;13.97;;;;;;;8.14;62.45;99278.55;1629831;86;21374;-91
2021/03/16 12:56:07;;;;;;;22.80;15.23;;;;;;;7.94;62.45;99246.62;1638803;85;21127;-91
2021/03/16 12:58:57;;;;;;;22.30;15.35;;;;;;;8.20;62.46;99276.94;1652161;85;21937;-91
2021/03/16 13:01:54;;;;;;;17.95;14.23;;;;;;;8.24;62.58;99286.66;1631153;85;21480;-88
2021/03/16 13:04:40;;;;;;;23.17;15.47;;;;;;;8.25;62.35;99286.95;1616789;85;21317;-90
2021/03/16 13:07:31;;;;;;;25.60;15.40;;;;;;;8.28;62.49;99295.86;1617491;87;21257;-89
2021/03/16 13:10:29;;;;;;;;;;;;;;;;;;;;;
2021/03/16 13:13:08;;;;;;;17.00;13.37;;;;;;;8.50;61.68;99299.23;1654426;85;21130;-90
2021/03/16 13:15:56;;;;;;;26.70;14.90;;;;;;;8.43;61.77;99275.82;1652768;85;21208;-88
2021/03/16 13:18:50;;;;;;;18.83;14.57;;;;;;;8.37;61.83;99303.44;1663168;84;21581;-90
2021/03/16 13:21:39;;;;;;;20.23;13.70;;;;;;;8.33;61.96;99284.14;1658858;85;21154;-86
2021/03/16 13:24:42;;;;;;;;;;;;;;;;;;;;;
2021/03/16 13:37:58;;;;;;;24.53;13.43;;;;;;;8.22;62.82;99289.51;1742840;77;22516;-87
2021/03/16 13:40:59;;;;;;;;;;;;;;;;;;;;;
2021/03/16 13:43:35;;;;;;;21.67;14.40;;;;;;;8.24;62.60;99284.00;1830038;77;24272;-89
2021/03/16 13:46:24;;;;;;;17.63;14.07;;;;;;;8.18;62.45;99305.53;1789092;78;21091;-89
2021/03/16 13:49:12;;;;;;;29.17;15.13;;;;;;;8.18;62.45;99297.56;1758425;81;21169;-87
2021/03/16 13:54:38;;;;;;;19.77;15.60;;;;;;;8.16;63.06;99315.01;1787945;77;22739;-89
2021/03/16 13:57:26;;;;;;;20.80;14.10;;;;;;;8.07;63.21;99301.59;1737170;80;21133;-88
2021/03/16 14:00:17;;;;;;;16.43;13.30;;;;;;;8.13;63.23;99302.64;1731077;81;21253;-87
2021/03/16 14:03:12;;;;;;;21.67;14.53;;;;;;;8.18;62.95;99297.05;1703056;83;21460;-90
2021/03/16 14:06:02;;;;;;;22.03;14.50;;;;;;;8.12;62.99;99314.28;1702311;83;21188;-89
2021/03/16 14:08:59;;;;;;;17.90;14.70;;;;;;;8.08;63.20;99306.38;1690912;83;21430;-91
2021/03/16 14:11:47;;;;;;;18.62;15.03;;;;;;;7.98;63.79;99289.50;1701231;81;21625;-89
2021/03/16 14:14:36;;;;;;;25.03;16.00;;;;;;;7.94;64.02;99301.02;1728433;81;21447;-88
2021/03/16 14:17:25;;;;;;;19.10;14.07;;;;;;;7.89;64.20;99306.11;1735610;81;21172;-89
2021/03/16 14:20:16;;;;;;;22.17;14.77;;;;;;;7.91;64.30;99300.09;1729322;81;21309;-90
2021/03/16 14:23:03;;;;;;;19.63;15.13;;;;;;;7.98;64.15;99294.30;1666872;83;21491;-88
2021/03/16 14:25:54;;;;;;;21.40;16.20;;;;;;;7.95;64.32;99289.91;1641829;85;21433;-87
2021/03/16 14:28:44;;;;;;;21.50;16.83;;;;;;;7.92;64.43;99291.11;1635321;85;21459;-88
2021/03/16 14:31:30;;;;;;;21.50;17.17;;;;;;;7.90;64.50;99295.80;1641865;85;21370;-89
2021/03/16 14:34:16;;;;;;;26.05;16.23;;;;;;;7.87;64.56;99308.11;1656920;84;21242;-89
2021/03/16 14:37:06;;;;;;;25.73;15.17;;;;;;;7.83;64.53;99302.08;1671444;84;21787;-87
2021/03/16 14:39:53;;;;;;;17.80;14.57;;;;;;;7.86;64.05;99323.73;1658319;83;21204;-87
2021/03/16 14:42:40;;;;;;;22.35;14.68;;;;;;;7.85;63.71;99319.43;1707953;82;21199;-90
2021/03/16 14:45:28;;;;;;;20.47;15.77;;;;;;;7.75;63.86;99307.05;1729275;82;21116;-88
2021/03/16 14:48:20;;;;;;;21.57;16.05;;;;;;;7.68;63.91;99300.87;1720466;82;21211;-87
2021/03/16 14:51:06;;;;;;;23.00;15.60;;;;;;;7.64;64.10;99308.91;1716419;82;21894;-89
2021/03/16 14:53:55;;;;;;;23.35;15.58;;;;;;;7.57;64.20;99320.30;1706776;82;21219;-88
2021/03/16 14:56:43;;;;;;;;;;;;;;;7.50;64.48;99317.30;1711314;82;21203;-91
2021/03/16 14:59:29;;;;;;;24.03;15.57;;;;;;;7.52;64.35;99320.05;1700263;82;20252;-89
2021/03/16 15:02:21;;;;;;;22.20;15.73;;;;;;;7.57;64.20;99316.81;1687727;82;21372;-89
2021/03/16 15:05:08;;;;;;;20.53;15.00;;;;;;;7.52;64.38;99321.38;1703309;82;21455;-91
2021/03/16 15:08:08;;;;;;;25.43;16.50;;;;;;;7.48;64.57;99324.11;1699067;82;21274;-88
2021/03/16 15:10:59;;;;;;;25.83;15.63;;;;;;;7.35;65.13;99331.97;1691006;82;21445;-90
2021/03/16 15:13:48;;;;;;;20.72;15.80;;;;;;;7.31;65.19;99330.69;1685404;82;21254;-92
2021/03/16 15:16:36;;;;;;;23.60;14.67;;;;;;;7.28;65.07;99329.25;1689651;83;21381;-91
2021/03/16 15:19:24;;;;;;;23.53;15.17;;;;;;;7.34;64.93;99323.69;1707114;82;21188;-91
2021/03/16 15:22:10;;;;;;;22.60;15.53;;;;;;;7.41;64.83;99333.33;1696412;82;22275;-90
2021/03/16 15:24:59;;;;;;;24.82;16.57;;;;;;;7.34;64.97;99325.02;1698424;80;21191;-91
2021/03/16 15:27:48;;;;;;;23.03;17.87;;;;;;;7.28;65.26;99326.59;1732804;80;21316;-90
2021/03/16 15:30:41;;;;;;;24.30;17.93;;;;;;;7.00;65.44;99296.09;1734051;80;21419;-88
2021/03/16 15:33:32;;;;;;;20.83;17.90;;;;;;;7.18;65.55;99334.88;1731344;80;21252;-90
2021/03/16 15:36:23;;;;;;;27.77;16.47;;;;;;;7.15;65.70;99343.72;1692693;83;22016;-87
2021/03/16 15:39:13;;;;;;;23.13;18.23;;;;;;;7.23;65.56;99342.25;1671733;83;21215;-89
2021/03/16 15:41:58;;;;;;;32.83;18.83;;;;;;;7.24;65.49;99355.02;1701770;83;21211;-88
2021/03/16 15:44:50;;;;;;;27.93;19.33;;;;;;;7.11;65.35;99356.52;1702288;82;21311;-91
2021/03/16 15:47:36;;;;;;;32.78;21.70;;;;;;;7.06;65.38;99359.42;1704662;82;21213;-89
2021/03/16 15:50:45;;;;;;;;;;;;;;;;;;;;;
2021/03/16 15:53:14;;;;;;;30.23;17.80;;;;;;;6.93;66.29;99349.03;1817987;77;22564;-88
2021/03/16 15:56:01;;;;;;;28.27;19.62;;;;;;;6.94;66.37;99351.17;1738150;80;21230;-90
2021/03/16 15:58:48;;;;;;;31.10;20.57;;;;;;;7.06;66.21;99369.52;1690285;82;21852;-88
2021/03/16 16:01:33;;;;;;;26.70;20.73;;;;;;;7.00;66.46;99366.30;1721351;82;21471;-88
2021/03/16 16:04:20;;;;;;;30.13;20.67;;;;;;;6.89;66.73;99365.47;1687033;81;21344;-89
2021/03/16 16:07:21;;;;;;;28.97;22.50;;;;;;;6.82;66.96;99359.61;1712217;82;21150;-86
2021/03/16 16:10:08;;;;;;;26.80;21.70;;;;;;;6.77;67.08;99354.05;1700610;82;21190;-90
2021/03/16 16:12:56;;;;;;;30.15;20.32;;;;;;;6.73;67.21;99359.92;1701353;82;21364;-88
2021/03/16 16:15:43;;;;;;;28.30;19.87;;;;;;;6.79;67.13;99363.14;1676170;83;21218;-88
2021/03/16 16:18:30;;;;;;;;;;;;;;;6.88;67.04;99371.28;1705766;83;21219;-90
2021/03/16 16:21:17;;;;;;;31.17;21.37;;;;;;;6.76;67.31;99363.50;1704646;82;20294;-89
2021/03/16 16:24:16;;;;;;;31.47;23.70;;;;;;;6.58;67.66;99362.61;1730690;81;21673;-89
2021/03/16 16:26:57;;;;;;;37.13;23.30;;;;;;;6.50;67.98;99367.98;1729325;81;21329;-89
2021/03/16 16:29:45;;;;;;;33.47;22.23;;;;;;;6.40;68.29;99366.48;1730822;81;21324;-89
2021/03/16 16:32:43;;;;;;;;;;;;;;;;;;;;;
2021/03/16 16:35:13;;;;;;;36.30;21.70;;;;;;;6.55;68.10;99366.94;1729452;80;24345;-88
2021/03/16 16:38:01;;;;;;;41.27;24.30;;;;;;;6.43;68.22;99363.45;1718724;81;21207;-89
2021/03/16 16:40:54;;;;;;;34.53;24.53;;;;;;;6.37;68.40;99358.89;1701315;81;21197;-89
2021/03/16 16:43:40;;;;;;;35.80;24.67;;;;;;;6.33;68.52;99373.52;1689258;83;21220;-89
2021/03/16 16:46:27;;;;;;;28.67;20.10;;;;;;;6.26;68.60;99375.76;1693736;83;21182;-89
2021/03/16 16:49:16;;;;;;;34.00;22.20;;;;;;;6.28;68.59;99361.33;1701145;81;21197;-88
2021/03/16 16:52:06;;;;;;;37.20;24.50;;;;;;;6.39;68.32;99367.47;1708029;83;21155;-87
2021/03/16 16:54:52;;;;;;;29.53;24.23;;;;;;;6.33;68.37;99375.31;1697993;81;21743;-89
2021/03/16 16:57:38;;;;;;;38.33;24.57;;;;;;;5.82;68.44;99311.22;1695492;83;21669;-88
2021/03/16 17:00:27;;;;;;;34.67;26.73;;;;;;;6.15;68.66;99384.97;1700282;83;21237;-87
2021/03/16 17:03:16;;;;;;;33.17;21.50;;;;;;;6.07;68.71;99380.59;1698516;83;21317;-90
2021/03/16 17:06:07;;;;;;;40.77;22.30;;;;;;;6.09;68.82;99381.23;1695829;83;21222;-88
2021/03/16 17:09:10;;;;;;;42.80;23.10;;;;;;;6.15;68.57;99395.05;1702173;83;21340;-91
2021/03/16 17:12:07;;;;;;;42.20;24.20;;;;;;;6.09;68.74;99387.03;1788814;78;22905;-89
2021/03/16 17:14:54;;;;;;;34.07;23.13;;;;;;;5.99;68.90;99391.25;1730169;81;21171;-90
2021/03/16 17:17:42;;;;;;;36.30;21.23;;;;;;;5.93;68.99;99394.59;1664432;82;21195;-91
2021/03/16 17:20:32;;;;;;;34.90;22.00;;;;;;;5.96;68.99;99391.12;1692369;83;21233;-89
2021/03/16 17:23:18;;;;;;;36.93;22.43;;;;;;;6.04;68.79;99376.47;1707549;81;22073;-89
2021/03/16 17:26:04;;;;;;;33.50;22.13;;;;;;;5.98;68.91;99375.07;1715339;82;21202;-89
2021/03/16 17:28:50;;;;;;;39.00;23.40;;;;;;;5.92;69.05;99375.27;1718033;82;21278;-90
2021/03/16 17:31:43;;;;;;;40.10;24.13;;;;;;;5.87;69.19;99381.59;1724370;82;21224;-87
2021/03/16 17:34:29;;;;;;;30.30;20.03;;;;;;;5.81;69.30;99390.25;1718987;82;21147;-90
2021/03/16 17:37:18;;;;;;;36.17;21.53;;;;;;;5.84;69.28;99380.65;1718961;81;21405;-89
2021/03/16 17:40:09;;;;;;;34.55;19.65;;;;;;;5.93;69.11;99387.47;1718823;81;21326;-91
2021/03/16 17:42:54;;;;;;;31.43;20.43;;;;;;;4.74;69.21;99202.82;1733531;81;22356;-87
2021/03/16 17:45:43;;;;;;;40.40;21.97;;;;;;;5.81;69.53;99387.61;1725288;81;21133;-88
2021/03/16 17:48:33;;;;;;;36.60;22.60;;;;;;;5.77;69.58;99391.63;1730179;81;21231;-88
2021/03/16 17:51:19;;;;;;;41.60;19.98;;;;;;;5.71;69.83;99394.48;1683103;82;21191;-88
2021/03/16 17:54:10;;;;;;;35.33;22.50;;;;;;;5.72;69.86;99380.25;1717425;82;21341;-90
2021/03/16 17:56:56;;;;;;;28.30;19.13;;;;;;;5.79;69.70;99386.97;1719509;81;21597;-84
2021/03/16 17:59:43;;;;;;;40.05;21.05;;;;;;;5.74;69.75;99382.72;1723861;82;21776;-84
2021/03/16 18:02:29;;;;;;;46.27;21.63;;;;;;;5.69;69.89;99383.27;1723223;81;21215;-86